sensor_id;sensor_type;location;lat;lon;timestamp;P1;durP1;ratioP1;P2;durP2;ratioP2
16775;SDS011;8505;49.456;8.164;2023-08-06T00:01:35;5.20;;;3.72;;
16775;SDS011;8505;49.456;8.164;2023-08-06T00:04:03;6.68;;;3.90;;
16775;SDS011;8505;49.456;8.164;2023-08-06T00:06:31;4.82;;;3.58;;
16775;SDS011;8505;49.456;8.164;2023-08-06T00:08:58;4.13;;;3.45;;
16775;SDS011;8505;49.456;8.164;2023-08-06T00:11:26;4.78;;;3.50;;
16775;SDS011;8505;49.456;8.164;2023-08-06T00:13:54;5.30;;;3.50;;
16775;SDS011;8505;49.456;8.164;2023-08-06T00:16:23;5.07;;;3.50;;
16775;SDS011;8505;49.456;8.164;2023-08-06T00:18:50;5.67;;;3.60;;
16775;SDS011;8505;49.456;8.164;2023-08-06T00:21:18;7.85;;;3.90;;
16775;SDS011;8505;49.456;8.164;2023-08-06T00:23:45;5.72;;;3.80;;
16775;SDS011;8505;49.456;8.164;2023-08-06T00:26:13;6.53;;;3.83;;
16775;SDS011;8505;49.456;8.164;2023-08-06T00:28:41;9.35;;;3.67;;
16775;SDS011;8505;49.456;8.164;2023-08-06T00:31:09;5.78;;;4.03;;
16775;SDS011;8505;49.456;8.164;2023-08-06T00:33:38;5.95;;;3.88;;
16775;SDS011;8505;49.456;8.164;2023-08-06T00:36:05;7.22;;;3.95;;
16775;SDS011;8505;49.456;8.164;2023-08-06T00:38:33;5.85;;;3.88;;
16775;SDS011;8505;49.456;8.164;2023-08-06T00:41:00;5.70;;;3.80;;
16775;SDS011;8505;49.456;8.164;2023-08-06T00:43:28;5.90;;;3.85;;
16775;SDS011;8505;49.456;8.164;2023-08-06T00:45:56;5.50;;;3.37;;
16775;SDS011;8505;49.456;8.164;2023-08-06T00:48:24;3.95;;;2.92;;
16775;SDS011;8505;49.456;8.164;2023-08-06T00:50:53;3.92;;;2.53;;
16775;SDS011;8505;49.456;8.164;2023-08-06T00:53:21;4.55;;;2.63;;
16775;SDS011;8505;49.456;8.164;2023-08-06T00:55:49;4.10;;;2.60;;
16775;SDS011;8505;49.456;8.164;2023-08-06T00:58:18;3.65;;;2.28;;
16775;SDS011;8505;49.456;8.164;2023-08-06T01:00:46;4.03;;;2.05;;
16775;SDS011;8505;49.456;8.164;2023-08-06T01:03:14;3.95;;;2.20;;
16775;SDS011;8505;49.456;8.164;2023-08-06T01:05:42;4.10;;;2.10;;
16775;SDS011;8505;49.456;8.164;2023-08-06T01:08:15;4.72;;;2.15;;
16775;SDS011;8505;49.456;8.164;2023-08-06T01:10:51;4.57;;;2.28;;
16775;SDS011;8505;49.456;8.164;2023-08-06T01:13:28;3.97;;;1.83;;
16775;SDS011;8505;49.456;8.164;2023-08-06T01:16:00;3.83;;;1.90;;
16775;SDS011;8505;49.456;8.164;2023-08-06T01:18:29;3.03;;;1.98;;
16775;SDS011;8505;49.456;8.164;2023-08-06T01:21:01;4.30;;;1.95;;
16775;SDS011;8505;49.456;8.164;2023-08-06T01:23:29;5.57;;;2.22;;
16775;SDS011;8505;49.456;8.164;2023-08-06T01:25:58;5.03;;;1.92;;
16775;SDS011;8505;49.456;8.164;2023-08-06T01:28:33;3.28;;;1.80;;
16775;SDS011;8505;49.456;8.164;2023-08-06T01:31:10;4.80;;;2.10;;
16775;SDS011;8505;49.456;8.164;2023-08-06T01:33:43;4.70;;;1.90;;
16775;SDS011;8505;49.456;8.164;2023-08-06T01:36:16;5.72;;;1.90;;
16775;SDS011;8505;49.456;8.164;2023-08-06T01:38:46;3.67;;;1.92;;
16775;SDS011;8505;49.456;8.164;2023-08-06T01:41:14;3.60;;;1.80;;
16775;SDS011;8505;49.456;8.164;2023-08-06T01:43:42;4.20;;;1.50;;
16775;SDS011;8505;49.456;8.164;2023-08-06T01:46:09;3.67;;;1.90;;
16775;SDS011;8505;49.456;8.164;2023-08-06T01:48:37;3.58;;;1.60;;
16775;SDS011;8505;49.456;8.164;2023-08-06T01:51:05;4.00;;;1.70;;
16775;SDS011;8505;49.456;8.164;2023-08-06T01:53:34;3.65;;;1.58;;
16775;SDS011;8505;49.456;8.164;2023-08-06T01:56:02;4.22;;;1.60;;
16775;SDS011;8505;49.456;8.164;2023-08-06T01:58:30;2.80;;;1.40;;
16775;SDS011;8505;49.456;8.164;2023-08-06T02:00:58;3.45;;;1.30;;
16775;SDS011;8505;49.456;8.164;2023-08-06T02:03:25;5.50;;;1.50;;
16775;SDS011;8505;49.456;8.164;2023-08-06T02:05:54;2.05;;;1.30;;
16775;SDS011;8505;49.456;8.164;2023-08-06T02:08:22;2.97;;;1.40;;
16775;SDS011;8505;49.456;8.164;2023-08-06T02:10:51;3.95;;;1.40;;
16775;SDS011;8505;49.456;8.164;2023-08-06T02:13:19;3.97;;;1.40;;
16775;SDS011;8505;49.456;8.164;2023-08-06T02:15:47;4.72;;;1.50;;
16775;SDS011;8505;49.456;8.164;2023-08-06T02:18:15;3.20;;;1.30;;
16775;SDS011;8505;49.456;8.164;2023-08-06T02:20:43;4.00;;;1.35;;
16775;SDS011;8505;49.456;8.164;2023-08-06T02:23:11;3.40;;;1.60;;
16775;SDS011;8505;49.456;8.164;2023-08-06T02:25:38;4.10;;;1.30;;
16775;SDS011;8505;49.456;8.164;2023-08-06T02:28:07;4.10;;;1.50;;
16775;SDS011;8505;49.456;8.164;2023-08-06T02:30:35;4.22;;;1.50;;
16775;SDS011;8505;49.456;8.164;2023-08-06T02:33:02;5.28;;;1.50;;
16775;SDS011;8505;49.456;8.164;2023-08-06T02:35:30;5.68;;;1.65;;
16775;SDS011;8505;49.456;8.164;2023-08-06T02:37:58;5.30;;;1.65;;
16775;SDS011;8505;49.456;8.164;2023-08-06T02:40:25;5.53;;;1.50;;
16775;SDS011;8505;49.456;8.164;2023-08-06T02:42:53;4.35;;;1.23;;
16775;SDS011;8505;49.456;8.164;2023-08-06T02:45:22;4.63;;;1.40;;
16775;SDS011;8505;49.456;8.164;2023-08-06T02:47:50;3.93;;;1.30;;
16775;SDS011;8505;49.456;8.164;2023-08-06T02:50:17;4.65;;;1.50;;
16775;SDS011;8505;49.456;8.164;2023-08-06T02:52:45;5.00;;;1.60;;
16775;SDS011;8505;49.456;8.164;2023-08-06T02:55:13;5.00;;;1.60;;
16775;SDS011;8505;49.456;8.164;2023-08-06T02:57:40;4.38;;;1.40;;
16775;SDS011;8505;49.456;8.164;2023-08-06T03:00:08;4.03;;;1.58;;
16775;SDS011;8505;49.456;8.164;2023-08-06T03:02:39;4.78;;;1.40;;
16775;SDS011;8505;49.456;8.164;2023-08-06T03:05:07;5.22;;;1.25;;
16775;SDS011;8505;49.456;8.164;2023-08-06T03:07:35;3.72;;;1.15;;
16775;SDS011;8505;49.456;8.164;2023-08-06T03:10:04;7.40;;;1.50;;
16775;SDS011;8505;49.456;8.164;2023-08-06T03:12:32;4.70;;;1.50;;
16775;SDS011;8505;49.456;8.164;2023-08-06T03:14:59;3.33;;;1.17;;
16775;SDS011;8505;49.456;8.164;2023-08-06T03:17:27;6.13;;;1.00;;
16775;SDS011;8505;49.456;8.164;2023-08-06T03:19:56;4.47;;;1.20;;
16775;SDS011;8505;49.456;8.164;2023-08-06T03:22:24;2.75;;;0.80;;
16775;SDS011;8505;49.456;8.164;2023-08-06T03:24:51;2.63;;;0.90;;
16775;SDS011;8505;49.456;8.164;2023-08-06T03:27:19;3.38;;;0.70;;
16775;SDS011;8505;49.456;8.164;2023-08-06T03:29:48;4.60;;;0.80;;
16775;SDS011;8505;49.456;8.164;2023-08-06T03:32:16;3.30;;;0.70;;
16775;SDS011;8505;49.456;8.164;2023-08-06T03:34:44;2.73;;;0.73;;
16775;SDS011;8505;49.456;8.164;2023-08-06T03:37:13;3.00;;;0.60;;
16775;SDS011;8505;49.456;8.164;2023-08-06T03:39:40;1.88;;;0.60;;
16775;SDS011;8505;49.456;8.164;2023-08-06T03:42:08;2.50;;;0.70;;
16775;SDS011;8505;49.456;8.164;2023-08-06T03:44:36;1.98;;;0.50;;
16775;SDS011;8505;49.456;8.164;2023-08-06T03:47:03;1.92;;;0.50;;
16775;SDS011;8505;49.456;8.164;2023-08-06T03:49:32;2.30;;;0.50;;
16775;SDS011;8505;49.456;8.164;2023-08-06T03:51:59;2.70;;;0.50;;
16775;SDS011;8505;49.456;8.164;2023-08-06T03:54:28;1.73;;;0.50;;
16775;SDS011;8505;49.456;8.164;2023-08-06T03:56:56;1.70;;;0.50;;
16775;SDS011;8505;49.456;8.164;2023-08-06T03:59:23;1.80;;;0.47;;
16775;SDS011;8505;49.456;8.164;2023-08-06T04:01:51;3.60;;;0.60;;
16775;SDS011;8505;49.456;8.164;2023-08-06T04:04:19;1.63;;;0.45;;
16775;SDS011;8505;49.456;8.164;2023-08-06T04:06:47;2.63;;;0.60;;
16775;SDS011;8505;49.456;8.164;2023-08-06T04:09:14;2.08;;;0.40;;
16775;SDS011;8505;49.456;8.164;2023-08-06T04:11:43;2.60;;;0.40;;
16775;SDS011;8505;49.456;8.164;2023-08-06T04:14:11;2.10;;;0.50;;
16775;SDS011;8505;49.456;8.164;2023-08-06T04:16:39;1.40;;;0.40;;
16775;SDS011;8505;49.456;8.164;2023-08-06T04:19:06;0.95;;;0.32;;
16775;SDS011;8505;49.456;8.164;2023-08-06T04:21:34;1.42;;;0.30;;
16775;SDS011;8505;49.456;8.164;2023-08-06T04:24:02;1.73;;;0.32;;
16775;SDS011;8505;49.456;8.164;2023-08-06T04:26:30;1.90;;;0.40;;
16775;SDS011;8505;49.456;8.164;2023-08-06T04:28:59;1.63;;;0.32;;
16775;SDS011;8505;49.456;8.164;2023-08-06T04:31:26;1.80;;;0.30;;
16775;SDS011;8505;49.456;8.164;2023-08-06T04:33:56;2.08;;;0.40;;
16775;SDS011;8505;49.456;8.164;2023-08-06T04:36:24;0.70;;;0.20;;
16775;SDS011;8505;49.456;8.164;2023-08-06T04:38:51;1.13;;;0.30;;
16775;SDS011;8505;49.456;8.164;2023-08-06T04:41:19;1.30;;;0.30;;
16775;SDS011;8505;49.456;8.164;2023-08-06T04:43:47;1.25;;;0.20;;
16775;SDS011;8505;49.456;8.164;2023-08-06T04:46:16;1.10;;;0.25;;
16775;SDS011;8505;49.456;8.164;2023-08-06T04:48:43;0.37;;;0.20;;
16775;SDS011;8505;49.456;8.164;2023-08-06T04:51:11;1.50;;;0.30;;
16775;SDS011;8505;49.456;8.164;2023-08-06T04:53:39;0.45;;;0.30;;
16775;SDS011;8505;49.456;8.164;2023-08-06T04:56:06;0.57;;;0.20;;
16775;SDS011;8505;49.456;8.164;2023-08-06T04:58:34;1.70;;;0.33;;
16775;SDS011;8505;49.456;8.164;2023-08-06T05:01:05;1.63;;;0.20;;
16775;SDS011;8505;49.456;8.164;2023-08-06T05:03:34;0.73;;;0.30;;
16775;SDS011;8505;49.456;8.164;2023-08-06T05:06:02;1.52;;;0.30;;
16775;SDS011;8505;49.456;8.164;2023-08-06T05:08:29;1.10;;;0.30;;
16775;SDS011;8505;49.456;8.164;2023-08-06T05:10:57;0.93;;;0.20;;
16775;SDS011;8505;49.456;8.164;2023-08-06T05:13:26;1.30;;;0.30;;
16775;SDS011;8505;49.456;8.164;2023-08-06T05:15:54;0.20;;;0.20;;
16775;SDS011;8505;49.456;8.164;2023-08-06T05:18:22;1.10;;;0.30;;
16775;SDS011;8505;49.456;8.164;2023-08-06T05:20:50;0.87;;;0.30;;
16775;SDS011;8505;49.456;8.164;2023-08-06T05:23:18;0.28;;;0.20;;
16775;SDS011;8505;49.456;8.164;2023-08-06T05:25:46;0.70;;;0.30;;
16775;SDS011;8505;49.456;8.164;2023-08-06T05:28:13;0.93;;;0.30;;
16775;SDS011;8505;49.456;8.164;2023-08-06T05:30:41;1.57;;;0.30;;
16775;SDS011;8505;49.456;8.164;2023-08-06T05:33:09;0.65;;;0.20;;
16775;SDS011;8505;49.456;8.164;2023-08-06T05:35:36;1.25;;;0.30;;
16775;SDS011;8505;49.456;8.164;2023-08-06T05:38:05;0.77;;;0.20;;
16775;SDS011;8505;49.456;8.164;2023-08-06T05:40:33;1.08;;;0.30;;
16775;SDS011;8505;49.456;8.164;2023-08-06T05:43:01;0.50;;;0.20;;
16775;SDS011;8505;49.456;8.164;2023-08-06T05:45:28;0.57;;;0.30;;
16775;SDS011;8505;49.456;8.164;2023-08-06T05:47:56;1.15;;;0.20;;
16775;SDS011;8505;49.456;8.164;2023-08-06T05:50:25;0.43;;;0.30;;
16775;SDS011;8505;49.456;8.164;2023-08-06T05:52:52;2.22;;;0.45;;
16775;SDS011;8505;49.456;8.164;2023-08-06T05:55:21;0.52;;;0.22;;
16775;SDS011;8505;49.456;8.164;2023-08-06T05:57:49;1.10;;;0.30;;
16775;SDS011;8505;49.456;8.164;2023-08-06T06:00:18;0.28;;;0.20;;
16775;SDS011;8505;49.456;8.164;2023-08-06T06:02:46;0.97;;;0.30;;
16775;SDS011;8505;49.456;8.164;2023-08-06T06:05:14;0.90;;;0.30;;
16775;SDS011;8505;49.456;8.164;2023-08-06T06:07:42;1.15;;;0.35;;
16775;SDS011;8505;49.456;8.164;2023-08-06T06:10:09;0.73;;;0.40;;
16775;SDS011;8505;49.456;8.164;2023-08-06T06:12:40;0.75;;;0.30;;
16775;SDS011;8505;49.456;8.164;2023-08-06T06:15:08;0.63;;;0.30;;
16775;SDS011;8505;49.456;8.164;2023-08-06T06:17:36;0.75;;;0.25;;
16775;SDS011;8505;49.456;8.164;2023-08-06T06:20:04;1.35;;;0.30;;
16775;SDS011;8505;49.456;8.164;2023-08-06T06:22:33;1.27;;;0.40;;
16775;SDS011;8505;49.456;8.164;2023-08-06T06:25:01;0.60;;;0.20;;
16775;SDS011;8505;49.456;8.164;2023-08-06T06:27:28;0.63;;;0.30;;
16775;SDS011;8505;49.456;8.164;2023-08-06T06:29:57;0.38;;;0.20;;
16775;SDS011;8505;49.456;8.164;2023-08-06T06:32:25;0.80;;;0.30;;
16775;SDS011;8505;49.456;8.164;2023-08-06T06:34:53;1.17;;;0.20;;
16775;SDS011;8505;49.456;8.164;2023-08-06T06:37:21;0.30;;;0.20;;
16775;SDS011;8505;49.456;8.164;2023-08-06T06:39:49;1.05;;;0.30;;
16775;SDS011;8505;49.456;8.164;2023-08-06T06:42:17;0.40;;;0.20;;
16775;SDS011;8505;49.456;8.164;2023-08-06T06:44:44;0.50;;;0.20;;
16775;SDS011;8505;49.456;8.164;2023-08-06T06:47:13;0.77;;;0.25;;
16775;SDS011;8505;49.456;8.164;2023-08-06T06:49:41;1.50;;;0.20;;
16775;SDS011;8505;49.456;8.164;2023-08-06T06:52:09;0.50;;;0.20;;
16775;SDS011;8505;49.456;8.164;2023-08-06T06:54:37;0.20;;;0.20;;
16775;SDS011;8505;49.456;8.164;2023-08-06T06:57:05;0.13;;;0.10;;
16775;SDS011;8505;49.456;8.164;2023-08-06T06:59:33;1.50;;;0.22;;
16775;SDS011;8505;49.456;8.164;2023-08-06T07:02:01;0.35;;;0.20;;
16775;SDS011;8505;49.456;8.164;2023-08-06T07:04:30;0.10;;;0.10;;
16775;SDS011;8505;49.456;8.164;2023-08-06T07:06:58;1.25;;;0.10;;
16775;SDS011;8505;49.456;8.164;2023-08-06T07:09:25;0.20;;;0.20;;
16775;SDS011;8505;49.456;8.164;2023-08-06T07:11:53;0.20;;;0.20;;
16775;SDS011;8505;49.456;8.164;2023-08-06T07:14:22;0.32;;;0.10;;
16775;SDS011;8505;49.456;8.164;2023-08-06T07:16:51;0.80;;;0.13;;
16775;SDS011;8505;49.456;8.164;2023-08-06T07:19:19;0.70;;;0.20;;
16775;SDS011;8505;49.456;8.164;2023-08-06T07:21:48;0.63;;;0.20;;
16775;SDS011;8505;49.456;8.164;2023-08-06T07:24:17;0.47;;;0.22;;
16775;SDS011;8505;49.456;8.164;2023-08-06T07:26:45;0.30;;;0.30;;
16775;SDS011;8505;49.456;8.164;2023-08-06T07:29:13;0.63;;;0.20;;
16775;SDS011;8505;49.456;8.164;2023-08-06T07:31:47;1.05;;;0.30;;
16775;SDS011;8505;49.456;8.164;2023-08-06T07:34:17;0.55;;;0.40;;
16775;SDS011;8505;49.456;8.164;2023-08-06T07:36:45;1.05;;;0.32;;
16775;SDS011;8505;49.456;8.164;2023-08-06T07:39:15;1.02;;;0.30;;
16775;SDS011;8505;49.456;8.164;2023-08-06T07:41:43;0.75;;;0.50;;
16775;SDS011;8505;49.456;8.164;2023-08-06T07:44:12;1.80;;;0.50;;
16775;SDS011;8505;49.456;8.164;2023-08-06T07:46:39;1.58;;;0.75;;
16775;SDS011;8505;49.456;8.164;2023-08-06T07:49:08;1.13;;;0.80;;
16775;SDS011;8505;49.456;8.164;2023-08-06T07:51:38;0.95;;;0.60;;
16775;SDS011;8505;49.456;8.164;2023-08-06T07:54:06;0.75;;;0.63;;
16775;SDS011;8505;49.456;8.164;2023-08-06T07:56:35;0.52;;;0.43;;
16775;SDS011;8505;49.456;8.164;2023-08-06T07:59:03;0.90;;;0.50;;
16775;SDS011;8505;49.456;8.164;2023-08-06T08:01:31;1.38;;;0.40;;
16775;SDS011;8505;49.456;8.164;2023-08-06T08:03:58;0.95;;;0.50;;
16775;SDS011;8505;49.456;8.164;2023-08-06T08:06:26;0.30;;;0.30;;
16775;SDS011;8505;49.456;8.164;2023-08-06T08:08:54;1.00;;;0.40;;
16775;SDS011;8505;49.456;8.164;2023-08-06T08:11:22;1.13;;;0.50;;
16775;SDS011;8505;49.456;8.164;2023-08-06T08:13:51;0.85;;;0.40;;
16775;SDS011;8505;49.456;8.164;2023-08-06T08:16:18;0.90;;;0.30;;
16775;SDS011;8505;49.456;8.164;2023-08-06T08:18:46;0.70;;;0.30;;
16775;SDS011;8505;49.456;8.164;2023-08-06T08:21:14;0.30;;;0.30;;
16775;SDS011;8505;49.456;8.164;2023-08-06T08:23:41;0.95;;;0.43;;
16775;SDS011;8505;49.456;8.164;2023-08-06T08:26:10;0.50;;;0.50;;
16775;SDS011;8505;49.456;8.164;2023-08-06T08:28:37;0.22;;;0.20;;
16775;SDS011;8505;49.456;8.164;2023-08-06T08:31:09;0.70;;;0.20;;
16775;SDS011;8505;49.456;8.164;2023-08-06T08:33:37;0.63;;;0.28;;
16775;SDS011;8505;49.456;8.164;2023-08-06T08:36:05;1.17;;;0.20;;
16775;SDS011;8505;49.456;8.164;2023-08-06T08:38:33;0.20;;;0.20;;
16775;SDS011;8505;49.456;8.164;2023-08-06T08:41:01;0.73;;;0.20;;
16775;SDS011;8505;49.456;8.164;2023-08-06T08:43:28;0.70;;;0.20;;
16775;SDS011;8505;49.456;8.164;2023-08-06T08:45:57;0.32;;;0.13;;
16775;SDS011;8505;49.456;8.164;2023-08-06T08:48:27;0.25;;;0.20;;
16775;SDS011;8505;49.456;8.164;2023-08-06T08:50:55;0.20;;;0.20;;
16775;SDS011;8505;49.456;8.164;2023-08-06T08:53:23;0.90;;;0.20;;
16775;SDS011;8505;49.456;8.164;2023-08-06T08:55:54;0.80;;;0.20;;
16775;SDS011;8505;49.456;8.164;2023-08-06T08:58:22;0.20;;;0.20;;
16775;SDS011;8505;49.456;8.164;2023-08-06T09:00:50;0.88;;;0.28;;
16775;SDS011;8505;49.456;8.164;2023-08-06T09:03:18;0.60;;;0.20;;
16775;SDS011;8505;49.456;8.164;2023-08-06T09:05:49;1.10;;;0.20;;
16775;SDS011;8505;49.456;8.164;2023-08-06T09:08:20;0.40;;;0.30;;
16775;SDS011;8505;49.456;8.164;2023-08-06T09:10:51;0.30;;;0.30;;
16775;SDS011;8505;49.456;8.164;2023-08-06T09:13:20;1.70;;;0.20;;
16775;SDS011;8505;49.456;8.164;2023-08-06T09:15:49;0.30;;;0.20;;
16775;SDS011;8505;49.456;8.164;2023-08-06T09:18:24;0.70;;;0.20;;
16775;SDS011;8505;49.456;8.164;2023-08-06T09:20:55;0.57;;;0.20;;
16775;SDS011;8505;49.456;8.164;2023-08-06T09:23:27;0.60;;;0.40;;
16775;SDS011;8505;49.456;8.164;2023-08-06T09:25:57;0.20;;;0.20;;
16775;SDS011;8505;49.456;8.164;2023-08-06T09:28:25;0.22;;;0.22;;
16775;SDS011;8505;49.456;8.164;2023-08-06T09:31:05;0.30;;;0.20;;
16775;SDS011;8505;49.456;8.164;2023-08-06T09:33:32;0.30;;;0.17;;
16775;SDS011;8505;49.456;8.164;2023-08-06T09:36:08;0.90;;;0.20;;
16775;SDS011;8505;49.456;8.164;2023-08-06T09:38:37;0.10;;;0.10;;
16775;SDS011;8505;49.456;8.164;2023-08-06T09:41:06;0.10;;;0.10;;
16775;SDS011;8505;49.456;8.164;2023-08-06T09:43:39;1.00;;;0.20;;
16775;SDS011;8505;49.456;8.164;2023-08-06T09:46:11;0.40;;;0.20;;
16775;SDS011;8505;49.456;8.164;2023-08-06T09:48:41;0.20;;;0.20;;
16775;SDS011;8505;49.456;8.164;2023-08-06T09:51:13;0.20;;;0.20;;
16775;SDS011;8505;49.456;8.164;2023-08-06T09:53:41;0.28;;;0.20;;
16775;SDS011;8505;49.456;8.164;2023-08-06T09:56:09;0.40;;;0.20;;
16775;SDS011;8505;49.456;8.164;2023-08-06T09:58:40;0.47;;;0.30;;
16775;SDS011;8505;49.456;8.164;2023-08-06T10:01:08;0.40;;;0.20;;
16775;SDS011;8505;49.456;8.164;2023-08-06T10:03:37;1.00;;;0.20;;
16775;SDS011;8505;49.456;8.164;2023-08-06T10:06:06;0.43;;;0.40;;
16775;SDS011;8505;49.456;8.164;2023-08-06T10:08:36;0.20;;;0.20;;
16775;SDS011;8505;49.456;8.164;2023-08-06T10:11:05;0.30;;;0.20;;
16775;SDS011;8505;49.456;8.164;2023-08-06T10:13:33;0.20;;;0.20;;
16775;SDS011;8505;49.456;8.164;2023-08-06T10:16:03;0.30;;;0.20;;
16775;SDS011;8505;49.456;8.164;2023-08-06T10:18:32;0.25;;;0.25;;
16775;SDS011;8505;49.456;8.164;2023-08-06T10:21:02;0.43;;;0.20;;
16775;SDS011;8505;49.456;8.164;2023-08-06T10:23:33;1.40;;;0.20;;
16775;SDS011;8505;49.456;8.164;2023-08-06T10:26:05;0.43;;;0.30;;
16775;SDS011;8505;49.456;8.164;2023-08-06T10:28:33;0.50;;;0.30;;
16775;SDS011;8505;49.456;8.164;2023-08-06T10:31:03;0.30;;;0.30;;
16775;SDS011;8505;49.456;8.164;2023-08-06T10:33:41;0.40;;;0.20;;
16775;SDS011;8505;49.456;8.164;2023-08-06T10:36:10;0.40;;;0.32;;
16775;SDS011;8505;49.456;8.164;2023-08-06T10:38:44;0.40;;;0.20;;
16775;SDS011;8505;49.456;8.164;2023-08-06T10:41:16;0.70;;;0.30;;
16775;SDS011;8505;49.456;8.164;2023-08-06T10:43:51;0.60;;;0.20;;
16775;SDS011;8505;49.456;8.164;2023-08-06T10:46:22;0.38;;;0.20;;
16775;SDS011;8505;49.456;8.164;2023-08-06T10:48:54;0.40;;;0.20;;
16775;SDS011;8505;49.456;8.164;2023-08-06T10:51:21;0.70;;;0.30;;
16775;SDS011;8505;49.456;8.164;2023-08-06T10:53:49;0.30;;;0.30;;
16775;SDS011;8505;49.456;8.164;2023-08-06T10:56:19;0.60;;;0.40;;
16775;SDS011;8505;49.456;8.164;2023-08-06T10:58:49;0.40;;;0.30;;
16775;SDS011;8505;49.456;8.164;2023-08-06T11:01:17;1.70;;;0.30;;
16775;SDS011;8505;49.456;8.164;2023-08-06T11:03:45;0.45;;;0.38;;
16775;SDS011;8505;49.456;8.164;2023-08-06T11:06:16;0.50;;;0.50;;
16775;SDS011;8505;49.456;8.164;2023-08-06T11:08:49;1.25;;;0.88;;
16775;SDS011;8505;49.456;8.164;2023-08-06T11:11:19;1.10;;;0.50;;
16775;SDS011;8505;49.456;8.164;2023-08-06T11:13:49;0.93;;;0.47;;
16775;SDS011;8505;49.456;8.164;2023-08-06T11:16:18;1.98;;;0.40;;
16775;SDS011;8505;49.456;8.164;2023-08-06T11:18:46;2.55;;;0.40;;
16775;SDS011;8505;49.456;8.164;2023-08-06T11:21:14;1.00;;;0.50;;
16775;SDS011;8505;49.456;8.164;2023-08-06T11:23:46;0.57;;;0.40;;
16775;SDS011;8505;49.456;8.164;2023-08-06T11:26:19;1.38;;;0.50;;
16775;SDS011;8505;49.456;8.164;2023-08-06T11:28:47;0.80;;;0.50;;
16775;SDS011;8505;49.456;8.164;2023-08-06T11:31:18;1.30;;;0.70;;
16775;SDS011;8505;49.456;8.164;2023-08-06T11:33:47;1.93;;;0.60;;
16775;SDS011;8505;49.456;8.164;2023-08-06T11:36:14;1.80;;;0.60;;
16775;SDS011;8505;49.456;8.164;2023-08-06T11:38:42;1.10;;;0.50;;
16775;SDS011;8505;49.456;8.164;2023-08-06T11:41:10;0.85;;;0.70;;
16775;SDS011;8505;49.456;8.164;2023-08-06T11:43:40;0.95;;;0.70;;
16775;SDS011;8505;49.456;8.164;2023-08-06T11:46:08;1.58;;;0.70;;
16775;SDS011;8505;49.456;8.164;2023-08-06T11:48:50;1.83;;;0.80;;
16775;SDS011;8505;49.456;8.164;2023-08-06T11:51:18;2.00;;;0.70;;
16775;SDS011;8505;49.456;8.164;2023-08-06T11:53:48;2.50;;;0.80;;
16775;SDS011;8505;49.456;8.164;2023-08-06T11:56:16;2.03;;;0.80;;
16775;SDS011;8505;49.456;8.164;2023-08-06T11:58:45;2.00;;;0.80;;
16775;SDS011;8505;49.456;8.164;2023-08-06T12:01:13;0.97;;;0.70;;
16775;SDS011;8505;49.456;8.164;2023-08-06T12:03:41;1.15;;;0.70;;
16775;SDS011;8505;49.456;8.164;2023-08-06T12:06:09;2.30;;;1.00;;
16775;SDS011;8505;49.456;8.164;2023-08-06T12:08:36;2.97;;;1.20;;
16775;SDS011;8505;49.456;8.164;2023-08-06T12:11:05;2.58;;;0.90;;
16775;SDS011;8505;49.456;8.164;2023-08-06T12:13:33;2.22;;;0.95;;
16775;SDS011;8505;49.456;8.164;2023-08-06T12:16:29;1.35;;;0.85;;
16775;SDS011;8505;49.456;8.164;2023-08-06T12:18:57;2.50;;;0.80;;
16775;SDS011;8505;49.456;8.164;2023-08-06T12:21:24;1.02;;;0.50;;
16775;SDS011;8505;49.456;8.164;2023-08-06T12:23:52;2.22;;;0.60;;
16775;SDS011;8505;49.456;8.164;2023-08-06T12:26:20;1.98;;;0.60;;
16775;SDS011;8505;49.456;8.164;2023-08-06T12:28:47;2.42;;;0.65;;
16775;SDS011;8505;49.456;8.164;2023-08-06T12:31:15;1.20;;;0.50;;
16775;SDS011;8505;49.456;8.164;2023-08-06T12:33:44;1.48;;;0.43;;
16775;SDS011;8505;49.456;8.164;2023-08-06T12:36:12;1.90;;;0.50;;
16775;SDS011;8505;49.456;8.164;2023-08-06T12:38:40;1.80;;;0.50;;
16775;SDS011;8505;49.456;8.164;2023-08-06T12:41:07;1.45;;;0.70;;
16775;SDS011;8505;49.456;8.164;2023-08-06T12:43:35;1.27;;;0.57;;
16775;SDS011;8505;49.456;8.164;2023-08-06T12:46:02;2.58;;;0.60;;
16775;SDS011;8505;49.456;8.164;2023-08-06T12:48:30;0.70;;;0.50;;
16775;SDS011;8505;49.456;8.164;2023-08-06T12:50:59;1.55;;;0.60;;
16775;SDS011;8505;49.456;8.164;2023-08-06T12:53:27;1.20;;;0.60;;
16775;SDS011;8505;49.456;8.164;2023-08-06T12:55:55;1.50;;;0.80;;
16775;SDS011;8505;49.456;8.164;2023-08-06T12:58:22;1.85;;;0.80;;
16775;SDS011;8505;49.456;8.164;2023-08-06T13:00:50;1.23;;;0.70;;
16775;SDS011;8505;49.456;8.164;2023-08-06T13:03:17;1.08;;;0.60;;
16775;SDS011;8505;49.456;8.164;2023-08-06T13:05:45;3.60;;;0.73;;
16775;SDS011;8505;49.456;8.164;2023-08-06T13:08:14;5.57;;;0.80;;
16775;SDS011;8505;49.456;8.164;2023-08-06T13:10:42;1.55;;;0.60;;
16775;SDS011;8505;49.456;8.164;2023-08-06T13:13:10;1.27;;;0.60;;
16775;SDS011;8505;49.456;8.164;2023-08-06T13:15:38;1.02;;;0.50;;
16775;SDS011;8505;49.456;8.164;2023-08-06T13:18:05;1.15;;;0.63;;
16775;SDS011;8505;49.456;8.164;2023-08-06T13:20:33;3.03;;;0.70;;
16775;SDS011;8505;49.456;8.164;2023-08-06T13:23:01;1.35;;;0.50;;
16775;SDS011;8505;49.456;8.164;2023-08-06T13:25:30;1.35;;;0.60;;
16775;SDS011;8505;49.456;8.164;2023-08-06T13:28:02;1.67;;;0.50;;
16775;SDS011;8505;49.456;8.164;2023-08-06T13:30:30;2.70;;;0.60;;
16775;SDS011;8505;49.456;8.164;2023-08-06T13:32:58;1.38;;;0.63;;
16775;SDS011;8505;49.456;8.164;2023-08-06T13:35:26;1.17;;;0.60;;
16775;SDS011;8505;49.456;8.164;2023-08-06T13:37:53;1.20;;;0.50;;
16775;SDS011;8505;49.456;8.164;2023-08-06T13:40:21;1.15;;;0.70;;
16775;SDS011;8505;49.456;8.164;2023-08-06T13:42:50;1.50;;;0.70;;
16775;SDS011;8505;49.456;8.164;2023-08-06T13:45:18;1.27;;;0.50;;
16775;SDS011;8505;49.456;8.164;2023-08-06T13:47:46;1.50;;;0.80;;
16775;SDS011;8505;49.456;8.164;2023-08-06T13:50:13;1.50;;;0.90;;
16775;SDS011;8505;49.456;8.164;2023-08-06T13:52:41;2.10;;;0.70;;
16775;SDS011;8505;49.456;8.164;2023-08-06T13:55:09;2.70;;;0.80;;
16775;SDS011;8505;49.456;8.164;2023-08-06T13:57:37;2.00;;;0.80;;
16775;SDS011;8505;49.456;8.164;2023-08-06T14:00:07;2.65;;;0.85;;
16775;SDS011;8505;49.456;8.164;2023-08-06T14:02:36;2.15;;;0.80;;
16775;SDS011;8505;49.456;8.164;2023-08-06T14:05:04;2.85;;;0.95;;
16775;SDS011;8505;49.456;8.164;2023-08-06T14:07:33;2.72;;;0.88;;
16775;SDS011;8505;49.456;8.164;2023-08-06T14:10:01;1.42;;;0.90;;
16775;SDS011;8505;49.456;8.164;2023-08-06T14:12:29;1.10;;;0.70;;
16775;SDS011;8505;49.456;8.164;2023-08-06T14:14:56;1.25;;;0.70;;
16775;SDS011;8505;49.456;8.164;2023-08-06T14:17:26;2.00;;;1.00;;
16775;SDS011;8505;49.456;8.164;2023-08-06T14:19:54;1.27;;;0.75;;
16775;SDS011;8505;49.456;8.164;2023-08-06T14:22:22;1.42;;;0.68;;
16775;SDS011;8505;49.456;8.164;2023-08-06T14:24:49;2.77;;;0.60;;
16775;SDS011;8505;49.456;8.164;2023-08-06T14:27:17;2.67;;;0.73;;
16775;SDS011;8505;49.456;8.164;2023-08-06T14:29:45;2.55;;;0.80;;
16775;SDS011;8505;49.456;8.164;2023-08-06T14:32:12;2.22;;;0.70;;
16775;SDS011;8505;49.456;8.164;2023-08-06T14:34:45;1.73;;;0.70;;
16775;SDS011;8505;49.456;8.164;2023-08-06T14:37:13;2.33;;;0.68;;
16775;SDS011;8505;49.456;8.164;2023-08-06T14:39:40;1.25;;;0.73;;
16775;SDS011;8505;49.456;8.164;2023-08-06T14:42:08;1.73;;;0.80;;
16775;SDS011;8505;49.456;8.164;2023-08-06T14:44:36;2.50;;;0.75;;
16775;SDS011;8505;49.456;8.164;2023-08-06T14:47:03;2.30;;;0.90;;
16775;SDS011;8505;49.456;8.164;2023-08-06T14:49:31;1.92;;;0.93;;
16775;SDS011;8505;49.456;8.164;2023-08-06T14:52:00;2.53;;;0.80;;
16775;SDS011;8505;49.456;8.164;2023-08-06T14:54:28;1.55;;;0.82;;
16775;SDS011;8505;49.456;8.164;2023-08-06T14:56:59;2.15;;;0.98;;
16775;SDS011;8505;49.456;8.164;2023-08-06T14:59:26;2.70;;;0.73;;
16775;SDS011;8505;49.456;8.164;2023-08-06T15:01:54;1.95;;;0.80;;
16775;SDS011;8505;49.456;8.164;2023-08-06T15:04:22;2.08;;;0.90;;
16775;SDS011;8505;49.456;8.164;2023-08-06T15:06:50;3.03;;;0.90;;
16775;SDS011;8505;49.456;8.164;2023-08-06T15:09:20;1.33;;;0.80;;